createdAt,value
2022-09-22T00:00:35.038Z,0
2022-09-22T00:01:35.610Z,0
2022-09-22T00:02:35.439Z,0
2022-09-22T00:03:37.737Z,0
2022-09-22T00:04:35.009Z,0
2022-09-22T00:05:35.160Z,0
2022-09-22T00:06:35.003Z,0
2022-09-22T00:07:35.096Z,0
2022-09-22T00:08:37.988Z,0
2022-09-22T00:09:34.987Z,0
2022-09-22T00:10:34.971Z,0
2022-09-22T00:11:35.019Z,0
2022-09-22T00:12:35.023Z,0
2022-09-22T00:13:38.038Z,0
2022-09-22T00:14:35.023Z,0
2022-09-22T00:15:35.055Z,0
2022-09-22T00:16:35.606Z,0
2022-09-22T00:17:34.931Z,0
2022-09-22T00:18:34.995Z,0
2022-09-22T00:19:37.771Z,0
2022-09-22T00:20:34.987Z,0
2022-09-22T00:21:35.064Z,0
2022-09-22T00:22:35.110Z,0
2022-09-22T00:23:35.082Z,0
2022-09-22T00:24:37.769Z,0
2022-09-22T00:25:35.004Z,0
2022-09-22T00:26:34.986Z,0
2022-09-22T00:27:35.033Z,0
2022-09-22T00:28:35.022Z,0
2022-09-22T00:29:35.008Z,0
2022-09-22T00:30:38.132Z,0
2022-09-22T00:31:35.508Z,0
2022-09-22T00:32:35.014Z,0
2022-09-22T00:33:35.052Z,0
2022-09-22T00:34:35.006Z,0
2022-09-22T00:35:38.090Z,0
2022-09-22T00:36:35.035Z,0
2022-09-22T00:37:35.077Z,0
2022-09-22T00:38:35.007Z,0
2022-09-22T00:39:35.236Z,0
2022-09-22T00:40:35.454Z,0
2022-09-22T00:41:38.097Z,0
2022-09-22T00:42:35.052Z,0
2022-09-22T00:43:35.061Z,0
2022-09-22T00:44:35.022Z,0
2022-09-22T00:45:35.026Z,0
2022-09-22T00:46:38.187Z,0
2022-09-22T00:47:35.049Z,0
2022-09-22T00:48:35.075Z,0
2022-09-22T00:49:35.075Z,0
2022-09-22T00:50:35.037Z,0
2022-09-22T00:51:35.035Z,0
2022-09-22T00:52:38.062Z,0
2022-09-22T00:53:35.064Z,0
2022-09-22T00:54:35.042Z,0
2022-09-22T00:55:36.103Z,0
2022-09-22T00:56:35.040Z,0
2022-09-22T00:57:38.116Z,0
2022-09-22T00:58:35.068Z,0
2022-09-22T00:59:35.073Z,0
2022-09-22T01:00:35.389Z,0
2022-09-22T01:01:35.277Z,0
2022-09-22T01:02:35.091Z,0
2022-09-22T01:03:41.883Z,0
2022-09-22T01:04:35.061Z,0
2022-09-22T01:05:35.095Z,0
2022-09-22T01:06:35.049Z,0
2022-09-22T01:07:35.184Z,0
2022-09-22T01:08:38.176Z,0
2022-09-22T01:09:35.063Z,0
2022-09-22T01:10:35.120Z,0
2022-09-22T01:11:35.098Z,0
2022-09-22T01:12:38.299Z,0
2022-09-22T01:13:35.064Z,0
2022-09-22T01:14:38.163Z,0
2022-09-22T01:15:35.159Z,0
2022-09-22T01:16:35.270Z,0
2022-09-22T01:17:35.086Z,0
2022-09-22T01:18:35.081Z,0
2022-09-22T01:19:38.206Z,0
2022-09-22T01:20:35.085Z,0
2022-09-22T01:21:35.117Z,0
2022-09-22T01:22:35.093Z,0
2022-09-22T01:23:35.070Z,0
2022-09-22T01:24:35.103Z,0
2022-09-22T01:25:37.862Z,0
2022-09-22T01:26:35.070Z,0
2022-09-22T01:27:35.122Z,0
2022-09-22T01:28:35.075Z,0
2022-09-22T01:29:35.106Z,0
2022-09-22T01:30:37.899Z,0
2022-09-22T01:31:35.522Z,0
2022-09-22T01:32:35.199Z,0
2022-09-22T01:33:35.128Z,0
2022-09-22T01:34:35.094Z,0
2022-09-22T01:35:35.080Z,0
2022-09-22T01:36:37.902Z,0
2022-09-22T01:37:35.159Z,0
2022-09-22T01:38:36.133Z,0
2022-09-22T01:39:35.100Z,0
2022-09-22T01:40:35.455Z,0
2022-09-22T01:41:38.153Z,0
2022-09-22T01:42:35.142Z,0
2022-09-22T01:43:35.211Z,0
2022-09-22T01:44:35.110Z,0
2022-09-22T01:45:35.136Z,0
2022-09-22T01:46:35.479Z,0
2022-09-22T01:47:35.155Z,0
2022-09-22T01:48:35.110Z,0
2022-09-22T01:49:35.111Z,0
2022-09-22T01:50:35.111Z,0
2022-09-22T01:51:35.239Z,0
2022-09-22T01:52:38.147Z,0
2022-09-22T01:53:35.118Z,0
2022-09-22T01:54:35.117Z,0
2022-09-22T01:55:35.124Z,0
2022-09-22T01:56:35.139Z,0
2022-09-22T01:57:35.153Z,0
2022-09-22T01:58:35.186Z,0
2022-09-22T01:59:35.150Z,0
2022-09-22T02:00:35.137Z,0
2022-09-22T02:01:35.959Z,0
2022-09-22T02:02:36.437Z,0
2022-09-22T02:03:35.187Z,0
2022-09-22T02:04:35.064Z,0
2022-09-22T02:05:35.129Z,0
2022-09-22T02:06:35.142Z,0
2022-09-22T02:07:35.156Z,0
2022-09-22T02:08:37.958Z,0
2022-09-22T02:09:35.215Z,0
2022-09-22T02:10:35.150Z,0
2022-09-22T02:11:35.146Z,0
2022-09-22T02:12:35.201Z,0
2022-09-22T02:13:35.164Z,0
2022-09-22T02:14:35.176Z,0
2022-09-22T02:15:35.355Z,0
2022-09-22T02:16:35.360Z,0
2022-09-22T02:17:41.195Z,0
2022-09-22T02:18:35.136Z,0
2022-09-22T02:19:38.024Z,0
2022-09-22T02:20:35.153Z,0
2022-09-22T02:21:35.160Z,0
2022-09-22T02:22:35.163Z,0
2022-09-22T02:23:35.167Z,0
2022-09-22T02:24:38.321Z,0
2022-09-22T02:25:35.166Z,0
2022-09-22T02:26:35.170Z,0
2022-09-22T02:27:35.179Z,0
2022-09-22T02:28:35.194Z,0
2022-09-22T02:29:35.172Z,0
2022-09-22T02:30:39.280Z,0
2022-09-22T02:31:35.551Z,0
2022-09-22T02:32:36.261Z,0
2022-09-22T02:33:40.673Z,0
2022-09-22T02:34:35.201Z,0
2022-09-22T02:35:38.060Z,0
2022-09-22T02:36:35.176Z,0
2022-09-22T02:37:35.199Z,0
2022-09-22T02:38:35.185Z,0
2022-09-22T02:39:35.190Z,0
2022-09-22T02:40:38.636Z,0
2022-09-22T02:41:35.176Z,0
2022-09-22T02:42:35.373Z,0
2022-09-22T02:43:35.186Z,0
2022-09-22T02:44:36.178Z,0
2022-09-22T02:45:35.190Z,0
2022-09-22T02:46:38.828Z,0
2022-09-22T02:47:35.275Z,0
2022-09-22T02:48:38.317Z,0
2022-09-22T02:49:35.202Z,0
2022-09-22T02:50:35.361Z,0
2022-09-22T02:51:38.123Z,0
2022-09-22T02:52:35.221Z,0
2022-09-22T02:53:35.213Z,0
2022-09-22T02:54:35.200Z,0
2022-09-22T02:55:35.227Z,0
2022-09-22T02:56:35.251Z,0
2022-09-22T02:57:38.310Z,0
2022-09-22T02:58:35.198Z,0
2022-09-22T02:59:35.203Z,0
2022-09-22T03:00:35.254Z,0
2022-09-22T03:01:35.511Z,0
2022-09-22T03:02:38.373Z,0
2022-09-22T03:03:35.217Z,0
2022-09-22T03:04:35.660Z,0
2022-09-22T03:05:35.220Z,0
2022-09-22T03:06:35.226Z,0
2022-09-22T03:07:35.261Z,0
2022-09-22T03:08:38.174Z,0
2022-09-22T03:09:35.211Z,0
2022-09-22T03:10:35.228Z,0
2022-09-22T03:11:35.391Z,0
2022-09-22T03:12:35.298Z,0
2022-09-22T03:13:38.233Z,0
2022-09-22T03:14:35.213Z,0
2022-09-22T03:15:36.660Z,0
2022-09-22T03:16:35.237Z,0
2022-09-22T03:17:35.244Z,0
2022-09-22T03:18:35.251Z,0
2022-09-22T03:19:38.340Z,0
2022-09-22T03:20:38.462Z,0
2022-09-22T03:21:35.247Z,0
2022-09-22T03:22:35.275Z,0
2022-09-22T03:23:35.247Z,0
2022-09-22T03:24:38.406Z,0
2022-09-22T03:25:35.247Z,0
2022-09-22T03:26:35.234Z,0
2022-09-22T03:27:35.247Z,0
2022-09-22T03:28:35.288Z,0
2022-09-22T03:29:38.035Z,0
2022-09-22T03:30:38.467Z,0
2022-09-22T03:31:35.391Z,0
2022-09-22T03:32:38.031Z,0
2022-09-22T03:33:35.258Z,0
2022-09-22T03:34:35.261Z,0
2022-09-22T03:35:38.100Z,0
2022-09-22T03:36:35.259Z,0
2022-09-22T03:37:35.286Z,0
2022-09-22T03:38:35.287Z,0
2022-09-22T03:39:35.280Z,0
2022-09-22T03:40:35.679Z,0
2022-09-22T03:41:38.018Z,0
2022-09-22T03:42:35.285Z,0
2022-09-22T03:43:38.297Z,0
2022-09-22T03:44:35.281Z,0
2022-09-22T03:45:35.261Z,0
2022-09-22T03:46:38.442Z,0
2022-09-22T03:47:35.311Z,0
2022-09-22T03:48:35.285Z,0
2022-09-22T03:49:35.270Z,0
2022-09-22T03:50:35.393Z,0
2022-09-22T03:51:35.290Z,0
2022-09-22T03:52:38.477Z,0
2022-09-22T03:53:35.266Z,0
2022-09-22T03:54:35.278Z,0
2022-09-22T03:55:35.295Z,0
2022-09-22T03:56:35.265Z,0
2022-09-22T03:57:39.119Z,0
2022-09-22T03:58:35.283Z,0
2022-09-22T03:59:35.311Z,0
2022-09-22T04:00:35.318Z,0
2022-09-22T04:01:35.876Z,0
2022-09-22T04:02:35.689Z,0
2022-09-22T04:03:38.348Z,0
2022-09-22T04:04:35.320Z,0
2022-09-22T04:05:35.291Z,0
2022-09-22T04:06:35.373Z,0
2022-09-22T04:07:35.286Z,0
2022-09-22T04:08:38.539Z,0
2022-09-22T04:09:35.300Z,0
2022-09-22T04:10:35.285Z,0
2022-09-22T04:11:35.323Z,0
2022-09-22T04:12:35.343Z,0
2022-09-22T04:13:35.314Z,0
2022-09-22T04:14:35.294Z,0
2022-09-22T04:15:35.312Z,0
2022-09-22T04:16:35.567Z,0
2022-09-22T04:17:35.304Z,0
2022-09-22T04:18:35.310Z,0
2022-09-22T04:19:38.330Z,0
2022-09-22T04:20:35.324Z,0
2022-09-22T04:21:35.327Z,0
2022-09-22T04:22:38.122Z,0
2022-09-22T04:23:35.308Z,0
2022-09-22T04:24:35.414Z,0
2022-09-22T04:25:35.300Z,0
2022-09-22T04:26:36.379Z,0
2022-09-22T04:27:35.345Z,0
2022-09-22T04:29:35.307Z,0
2022-09-22T04:30:35.640Z,0
2022-09-22T04:31:35.357Z,0
2022-09-22T04:32:35.368Z,0
2022-09-22T04:34:35.319Z,0
2022-09-22T04:35:38.385Z,0
2022-09-22T04:36:35.346Z,0
2022-09-22T04:37:38.136Z,0
2022-09-22T04:38:35.329Z,0
2022-09-22T04:39:35.442Z,0
2022-09-22T04:40:35.653Z,0
2022-09-22T04:41:38.250Z,0
2022-09-22T04:42:35.417Z,0
2022-09-22T04:43:35.402Z,0
2022-09-22T04:44:40.042Z,0
2022-09-22T04:45:41.040Z,0
2022-09-22T04:46:38.587Z,0
2022-09-22T04:47:35.352Z,0
2022-09-22T04:48:35.356Z,0
2022-09-22T04:49:35.327Z,0
2022-09-22T04:50:35.313Z,0
2022-09-22T04:51:38.161Z,0
2022-09-22T04:52:35.383Z,0
2022-09-22T04:53:35.435Z,0
2022-09-22T04:54:35.364Z,0
2022-09-22T04:55:35.339Z,0
2022-09-22T04:56:35.345Z,0
2022-09-22T04:57:39.291Z,0
2022-09-22T04:58:35.339Z,0
2022-09-22T04:59:35.378Z,0
2022-09-22T05:00:35.346Z,0
2022-09-22T05:01:35.841Z,0
2022-09-22T05:02:38.564Z,0
2022-09-22T05:03:35.663Z,0
2022-09-22T05:04:37.668Z,0
2022-09-22T05:05:35.363Z,0
2022-09-22T05:06:35.423Z,0
2022-09-22T05:07:38.151Z,0
2022-09-22T05:08:35.373Z,0
2022-09-22T05:09:35.387Z,0
2022-09-22T05:10:35.361Z,0
2022-09-22T05:11:35.371Z,0
2022-09-22T05:12:35.361Z,0
2022-09-22T05:13:38.160Z,0
2022-09-22T05:14:35.704Z,0
2022-09-22T05:15:35.441Z,0
2022-09-22T05:16:35.746Z,0
2022-09-22T05:17:35.386Z,0
2022-09-22T05:18:37.362Z,0
2022-09-22T05:19:35.376Z,0
2022-09-22T05:20:35.389Z,0
2022-09-22T05:21:35.361Z,0
2022-09-22T05:22:41.369Z,0
2022-09-22T05:23:35.465Z,0
2022-09-22T05:24:38.530Z,0
2022-09-22T05:25:35.393Z,0
2022-09-22T05:26:35.368Z,0
2022-09-22T05:27:35.368Z,0
2022-09-22T05:28:35.400Z,0
2022-09-22T05:29:38.415Z,0
2022-09-22T05:30:35.386Z,0
2022-09-22T05:31:35.820Z,0
2022-09-22T05:32:35.406Z,0
2022-09-22T05:33:35.439Z,0
2022-09-22T05:34:35.409Z,0
2022-09-22T05:35:44.892Z,0
2022-09-22T05:36:35.382Z,0
2022-09-22T05:37:35.396Z,0
2022-09-22T05:38:35.416Z,5
2022-09-22T05:39:35.422Z,0
2022-09-22T05:40:38.703Z,0
2022-09-22T05:41:35.393Z,0
2022-09-22T05:42:36.407Z,5
2022-09-22T05:43:35.405Z,5
2022-09-22T05:44:36.637Z,5
2022-09-22T05:45:35.786Z,5
2022-09-22T05:46:38.416Z,5
2022-09-22T05:47:35.433Z,5
2022-09-22T05:48:40.100Z,5
2022-09-22T05:49:38.765Z,5
2022-09-22T05:50:35.424Z,5
2022-09-22T05:51:38.626Z,5
2022-09-22T05:52:35.408Z,5
2022-09-22T05:53:35.429Z,5
2022-09-22T05:54:35.415Z,5
2022-09-22T05:55:35.468Z,5
2022-09-22T05:56:35.441Z,5
2022-09-22T05:57:38.528Z,5
2022-09-22T05:58:35.420Z,5
2022-09-22T05:59:35.462Z,5
2022-09-22T06:00:35.531Z,5
2022-09-22T06:01:35.764Z,10
2022-09-22T06:02:37.071Z,10
2022-09-22T06:03:35.461Z,5
2022-09-22T06:04:35.414Z,5
2022-09-22T06:05:39.654Z,5
2022-09-22T06:06:35.419Z,5
2022-09-22T06:07:35.456Z,5
2022-09-22T06:08:38.260Z,5
2022-09-22T06:09:35.476Z,5
2022-09-22T06:10:35.530Z,5
2022-09-22T06:11:35.462Z,10
2022-09-22T06:12:35.459Z,10
2022-09-22T06:13:38.599Z,10
2022-09-22T06:14:35.462Z,10
2022-09-22T06:15:35.467Z,10
2022-09-22T06:16:35.991Z,10
2022-09-22T06:17:35.450Z,10
2022-09-22T06:18:35.447Z,10
2022-09-22T06:19:38.520Z,10
2022-09-22T06:20:35.554Z,10
2022-09-22T06:21:35.526Z,10
2022-09-22T06:22:35.434Z,10
2022-09-22T06:23:38.286Z,10
2022-09-22T06:24:38.232Z,10
2022-09-22T06:25:35.459Z,10
2022-09-22T06:26:38.200Z,10
2022-09-22T06:27:35.463Z,10
2022-09-22T06:28:35.464Z,10
2022-09-22T06:29:35.457Z,10
2022-09-22T06:30:38.329Z,10
2022-09-22T06:31:35.761Z,10
2022-09-22T06:32:35.444Z,10
2022-09-22T06:33:35.468Z,10
2022-09-22T06:34:35.471Z,10
2022-09-22T06:35:38.494Z,10
2022-09-22T06:36:35.471Z,10
2022-09-22T06:37:35.472Z,10
2022-09-22T06:38:35.448Z,10
2022-09-22T06:39:35.511Z,10
2022-09-22T06:40:35.961Z,10
2022-09-22T06:41:35.469Z,10
2022-09-22T06:42:35.495Z,10
2022-09-22T06:43:35.492Z,15
2022-09-22T06:44:35.514Z,15
2022-09-22T06:45:35.969Z,15
2022-09-22T06:46:38.683Z,15
2022-09-22T06:47:35.477Z,20
2022-09-22T06:48:35.473Z,20
2022-09-22T06:49:35.486Z,20
2022-09-22T06:50:39.232Z,20
2022-09-22T06:51:35.506Z,20
2022-09-22T06:52:38.571Z,20
2022-09-22T06:53:36.766Z,20
2022-09-22T06:54:35.517Z,20
2022-09-22T06:55:35.521Z,20
2022-09-22T06:56:39.453Z,25
2022-09-22T06:57:35.536Z,30
2022-09-22T06:59:11.606Z,35
2022-09-22T06:59:35.540Z,40
2022-09-22T07:00:35.814Z,30
2022-09-22T07:01:36.119Z,40
2022-09-22T07:02:38.593Z,40
2022-09-22T07:03:35.755Z,35
2022-09-22T07:04:35.516Z,35
2022-09-22T07:05:35.491Z,30
2022-09-22T07:06:35.497Z,25
2022-09-22T07:07:35.531Z,30
2022-09-22T07:08:35.542Z,30
2022-09-22T07:09:35.518Z,35
2022-09-22T07:10:35.508Z,35
2022-09-22T07:11:41.160Z,40
2022-09-22T07:12:35.539Z,40
2022-09-22T07:13:38.391Z,40
2022-09-22T07:14:35.527Z,30
2022-09-22T07:15:38.327Z,30
2022-09-22T07:16:35.914Z,35
2022-09-22T07:17:35.516Z,35
2022-09-22T07:18:38.330Z,25
2022-09-22T07:19:35.571Z,25
2022-09-22T07:20:35.509Z,20
2022-09-22T07:21:35.515Z,25
2022-09-22T07:22:35.547Z,25
2022-09-22T07:23:35.660Z,25
2022-09-22T07:24:38.687Z,25
2022-09-22T07:25:35.521Z,25
2022-09-22T07:26:35.690Z,20
2022-09-22T07:27:35.546Z,25
2022-09-22T07:28:35.529Z,20
2022-09-22T07:29:38.448Z,20
2022-09-22T07:30:35.550Z,20
2022-09-22T07:31:38.564Z,25
2022-09-22T07:32:35.536Z,25
2022-09-22T07:33:35.529Z,20
2022-09-22T07:34:36.378Z,25
2022-09-22T07:35:35.554Z,20
2022-09-22T07:36:35.551Z,20
2022-09-22T07:37:35.567Z,20
2022-09-22T07:38:35.544Z,20
2022-09-22T07:39:35.601Z,20
2022-09-22T07:40:39.118Z,20
2022-09-22T07:41:35.575Z,20
2022-09-22T07:42:35.392Z,25
2022-09-22T07:43:35.576Z,30
2022-09-22T07:44:35.559Z,35
2022-09-22T07:45:38.426Z,30
2022-09-22T07:46:35.793Z,30
2022-09-22T07:47:35.621Z,35
2022-09-22T07:48:35.554Z,30
2022-09-22T07:49:35.560Z,35
2022-09-22T07:50:35.649Z,40
2022-09-22T07:51:38.616Z,45
2022-09-22T07:52:35.558Z,55
2022-09-22T07:53:35.559Z,85
2022-09-22T07:54:35.598Z,75
2022-09-22T07:55:35.575Z,65
2022-09-22T07:56:38.383Z,85
2022-09-22T07:57:35.569Z,90
2022-09-22T07:58:35.583Z,85
2022-09-22T07:59:35.623Z,90
2022-09-22T08:00:36.036Z,105
2022-09-22T08:01:35.604Z,105
2022-09-22T08:02:38.804Z,100
2022-09-22T08:03:35.661Z,110
2022-09-22T08:04:35.915Z,105
2022-09-22T08:05:35.583Z,105
2022-09-22T08:06:35.623Z,105
2022-09-22T08:07:38.430Z,105
2022-09-22T08:08:35.592Z,105
2022-09-22T08:09:35.619Z,100
2022-09-22T08:10:35.683Z,100
2022-09-22T08:11:35.647Z,100
2022-09-22T08:12:35.626Z,100
2022-09-22T08:13:38.482Z,95
2022-09-22T08:14:35.614Z,95
2022-09-22T08:15:36.705Z,95
2022-09-22T08:16:35.967Z,95
2022-09-22T08:17:35.594Z,95
2022-09-22T08:18:38.525Z,95
2022-09-22T08:19:35.649Z,95
2022-09-22T08:20:35.665Z,85
2022-09-22T08:21:35.601Z,80
2022-09-22T08:22:35.622Z,85
2022-09-22T08:23:35.641Z,90
2022-09-22T08:24:38.392Z,90
2022-09-22T08:25:35.612Z,85
2022-09-22T08:26:35.617Z,85
2022-09-22T08:27:35.643Z,85
2022-09-22T08:28:35.659Z,85
2022-09-22T08:29:37.153Z,85
2022-09-22T08:30:35.729Z,85
2022-09-22T08:31:36.043Z,85
2022-09-22T08:32:35.624Z,85
2022-09-22T08:33:35.624Z,85
2022-09-22T08:34:35.546Z,85
2022-09-22T08:35:38.479Z,85
2022-09-22T08:36:35.641Z,85
2022-09-22T08:37:35.642Z,85
2022-09-22T08:38:35.642Z,85
2022-09-22T08:39:35.717Z,85
2022-09-22T08:40:39.210Z,85
2022-09-22T08:41:35.638Z,85
2022-09-22T08:42:35.651Z,85
2022-09-22T08:43:35.687Z,85
2022-09-22T08:44:35.751Z,85
2022-09-22T08:45:36.620Z,85
2022-09-22T08:46:38.885Z,85
2022-09-22T08:47:35.713Z,85
2022-09-22T08:48:35.656Z,85
2022-09-22T08:49:35.680Z,85
2022-09-22T08:50:35.737Z,85
2022-09-22T08:51:39.338Z,85
2022-09-22T08:52:35.520Z,90
2022-09-22T08:53:35.661Z,90
2022-09-22T08:54:35.694Z,90
2022-09-22T08:55:35.709Z,90
2022-09-22T08:56:35.671Z,90
2022-09-22T08:57:38.533Z,90
2022-09-22T08:58:35.733Z,90
2022-09-22T08:59:35.706Z,90
2022-09-22T09:00:39.231Z,95
2022-09-22T09:01:36.187Z,95
2022-09-22T09:02:39.171Z,95
2022-09-22T09:03:35.688Z,100
2022-09-22T09:04:35.715Z,100
2022-09-22T09:05:35.700Z,105
2022-09-22T09:06:35.708Z,110
2022-09-22T09:07:35.718Z,115
2022-09-22T09:08:35.688Z,115
2022-09-22T09:09:35.771Z,120
2022-09-22T09:10:35.894Z,135
2022-09-22T09:11:35.728Z,135
2022-09-22T09:12:35.706Z,140
2022-09-22T09:13:38.321Z,145
2022-09-22T09:14:35.760Z,150
2022-09-22T09:15:35.732Z,150
2022-09-22T09:16:41.775Z,155
2022-09-22T09:17:35.391Z,155
2022-09-22T09:18:35.575Z,160
2022-09-22T09:19:35.755Z,160
2022-09-22T09:20:35.681Z,160
2022-09-22T09:21:35.747Z,160
2022-09-22T09:22:35.737Z,165
2022-09-22T09:25:33.881Z,145
2022-09-22T09:26:43.246Z,135
2022-09-22T09:27:43.243Z,130
2022-09-22T09:28:43.259Z,125
2022-09-22T09:29:46.334Z,115
2022-09-22T09:30:43.300Z,110
2022-09-22T09:31:43.500Z,105
2022-09-22T09:32:43.259Z,105
2022-09-22T09:33:43.313Z,100
2022-09-22T09:34:43.315Z,95
2022-09-22T09:35:49.179Z,95
2022-09-22T09:36:43.274Z,90
2022-09-22T09:37:43.309Z,90
2022-09-22T09:38:43.263Z,90
2022-09-22T09:39:43.288Z,90
2022-09-22T09:40:46.508Z,90
2022-09-22T09:41:43.279Z,90
2022-09-22T09:42:43.271Z,90
2022-09-22T09:43:43.289Z,90
2022-09-22T09:44:43.280Z,90
2022-09-22T09:45:43.289Z,90
2022-09-22T09:46:46.518Z,90
2022-09-22T09:47:43.288Z,90
2022-09-22T09:48:43.290Z,90
2022-09-22T09:49:43.468Z,90
2022-09-22T09:50:43.316Z,90
2022-09-22T09:51:54.763Z,90
2022-09-22T09:52:43.344Z,90
2022-09-22T09:53:48.979Z,90
2022-09-22T09:54:44.320Z,90
2022-09-22T09:55:43.314Z,90
2022-09-22T09:56:46.367Z,85
2022-09-22T09:57:46.223Z,85
2022-09-22T09:58:43.351Z,85
2022-09-22T09:59:43.535Z,85
2022-09-22T10:00:43.344Z,85
2022-09-22T10:01:43.585Z,85
2022-09-22T10:02:46.275Z,85
2022-09-22T10:03:43.551Z,85
2022-09-22T10:04:43.347Z,85
2022-09-22T10:05:43.375Z,85
2022-09-22T10:06:43.358Z,85
2022-09-22T10:07:43.336Z,85
2022-09-22T10:08:46.503Z,85
2022-09-22T10:09:43.377Z,85
2022-09-22T10:10:43.366Z,85
2022-09-22T10:11:43.383Z,85
2022-09-22T10:12:43.353Z,85
2022-09-22T10:13:46.469Z,85
2022-09-22T10:14:43.318Z,85
2022-09-22T10:15:43.733Z,85
2022-09-22T10:16:43.413Z,85
2022-09-22T10:17:43.325Z,85
2022-09-22T10:18:43.387Z,85
2022-09-22T10:19:46.086Z,80
2022-09-22T10:20:43.349Z,80
2022-09-22T10:21:43.365Z,80
2022-09-22T10:22:48.814Z,80
2022-09-22T10:23:43.366Z,80
2022-09-22T10:24:46.431Z,80
2022-09-22T10:25:43.369Z,80
2022-09-22T10:26:43.200Z,80
2022-09-22T10:27:43.192Z,80
2022-09-22T10:28:43.387Z,80
2022-09-22T10:29:43.373Z,80
2022-09-22T10:30:46.537Z,80
2022-09-22T10:31:43.466Z,80
2022-09-22T10:32:43.359Z,80
2022-09-22T10:33:48.549Z,80
2022-09-22T10:34:43.760Z,80
2022-09-22T10:35:46.487Z,80
2022-09-22T10:36:43.372Z,80
2022-09-22T10:37:43.400Z,80
2022-09-22T10:38:44.570Z,80
2022-09-22T10:39:43.374Z,80
2022-09-22T10:40:44.969Z,80
2022-09-22T10:41:46.228Z,80
2022-09-22T10:42:43.388Z,75
2022-09-22T10:43:43.243Z,75
2022-09-22T10:44:53.755Z,75
2022-09-22T10:45:43.419Z,75
2022-09-22T10:46:46.275Z,75
2022-09-22T10:47:43.402Z,75
2022-09-22T10:48:43.400Z,75
2022-09-22T10:49:43.431Z,75
2022-09-22T10:50:43.467Z,75
2022-09-22T10:51:46.238Z,75
2022-09-22T10:52:43.399Z,75
2022-09-22T10:53:43.438Z,75
2022-09-22T10:54:43.402Z,75
2022-09-22T10:55:43.421Z,75
2022-09-22T10:56:43.519Z,75
2022-09-22T10:57:46.244Z,75
2022-09-22T10:58:43.413Z,75
2022-09-22T10:59:43.401Z,70
2022-09-22T11:00:48.014Z,70
2022-09-22T11:01:43.805Z,70
2022-09-22T11:02:45.834Z,70
2022-09-22T11:03:42.790Z,70
2022-09-22T11:04:43.161Z,70
2022-09-22T11:05:43.474Z,70
2022-09-22T11:06:46.513Z,70
2022-09-22T11:07:43.448Z,70
2022-09-22T11:08:46.175Z,70
2022-09-22T11:09:43.550Z,70
2022-09-22T11:10:43.446Z,70
2022-09-22T11:11:48.016Z,70
2022-09-22T11:12:43.274Z,70
2022-09-22T11:13:46.475Z,70
2022-09-22T11:14:43.456Z,70
2022-09-22T11:15:43.617Z,70
2022-09-22T11:16:43.528Z,70
2022-09-22T11:17:47.874Z,70
2022-09-22T11:18:46.786Z,70
2022-09-22T11:19:43.300Z,70
2022-09-22T11:20:43.455Z,70
2022-09-22T11:21:43.488Z,70
2022-09-22T11:22:43.511Z,70
2022-09-22T11:23:43.444Z,70
2022-09-22T11:24:46.530Z,20
2022-09-22T11:25:43.497Z,10
2022-09-22T11:26:43.466Z,10
2022-09-22T11:27:43.590Z,70
2022-09-22T11:28:43.559Z,70
2022-09-22T11:29:43.486Z,70
2022-09-22T11:30:43.775Z,70
2022-09-22T11:31:43.472Z,70
2022-09-22T11:32:43.545Z,70
2022-09-22T11:33:43.527Z,70
2022-09-22T11:34:43.482Z,70
2022-09-22T11:35:43.504Z,70
2022-09-22T11:36:45.853Z,70
2022-09-22T11:37:43.518Z,70
2022-09-22T11:38:43.504Z,70
2022-09-22T11:39:43.497Z,70
2022-09-22T11:40:44.235Z,70
2022-09-22T11:41:43.508Z,70
2022-09-22T11:42:43.483Z,75
2022-09-22T11:43:43.515Z,70
2022-09-22T11:44:43.485Z,70
2022-09-22T11:45:43.681Z,75
2022-09-22T11:46:43.487Z,75
2022-09-22T11:47:43.503Z,75
2022-09-22T11:48:43.524Z,75
2022-09-22T11:49:43.524Z,75
2022-09-22T11:50:43.527Z,75
2022-09-22T11:51:46.566Z,75
2022-09-22T11:52:43.502Z,75
2022-09-22T11:53:43.640Z,75
2022-09-22T11:54:43.536Z,75
2022-09-22T11:55:46.272Z,70
2022-09-22T11:56:46.308Z,70
2022-09-22T11:57:49.436Z,75
2022-09-22T11:58:43.522Z,75
2022-09-22T11:59:43.538Z,75
2022-09-22T12:00:43.570Z,75
2022-09-22T12:01:43.591Z,75
2022-09-22T12:02:47.404Z,75
2022-09-22T12:03:44.486Z,70
2022-09-22T12:04:43.571Z,70
2022-09-22T12:05:43.591Z,25
2022-09-22T12:06:43.375Z,20
2022-09-22T12:07:46.457Z,20
2022-09-22T12:08:43.651Z,20
2022-09-22T12:09:46.589Z,20
2022-09-22T12:10:43.564Z,20
2022-09-22T12:11:43.567Z,20
2022-09-22T12:12:43.612Z,20
2022-09-22T12:13:46.577Z,20
2022-09-22T12:14:43.554Z,20
2022-09-22T12:15:44.168Z,20
2022-09-22T12:16:43.584Z,20
2022-09-22T12:17:43.560Z,20
2022-09-22T12:18:46.365Z,15
2022-09-22T12:19:43.855Z,15
2022-09-22T12:20:43.986Z,15
2022-09-22T12:21:43.562Z,15
2022-09-22T12:22:43.574Z,15
2022-09-22T12:23:44.305Z,20
2022-09-22T12:24:46.322Z,20
2022-09-22T12:26:02.102Z,25
2022-09-22T12:26:43.595Z,35
2022-09-22T12:27:43.570Z,15
2022-09-22T12:28:43.611Z,15
2022-09-22T12:29:48.439Z,15
2022-09-22T12:30:43.854Z,15
2022-09-22T12:31:43.491Z,15
2022-09-22T12:32:43.598Z,20
2022-09-22T12:33:43.585Z,25
2022-09-22T12:34:43.612Z,20
2022-09-22T12:35:46.702Z,35
2022-09-22T12:36:43.691Z,25
2022-09-22T12:37:43.593Z,30
2022-09-22T12:38:43.590Z,55
2022-09-22T12:39:43.603Z,60
2022-09-22T12:40:46.711Z,60
2022-09-22T12:41:43.795Z,60
2022-09-22T12:42:43.445Z,60
2022-09-22T12:43:43.806Z,60
2022-09-22T12:44:43.656Z,55
2022-09-22T12:46:46.721Z,60
2022-09-22T12:47:43.674Z,60
2022-09-22T12:48:43.620Z,55
2022-09-22T12:49:43.610Z,55
2022-09-22T12:50:43.608Z,55
2022-09-22T12:51:49.509Z,55
2022-09-22T12:52:43.648Z,55
2022-09-22T12:53:49.935Z,55
2022-09-22T12:54:43.633Z,60
2022-09-22T12:55:43.650Z,60
2022-09-22T12:56:43.645Z,55
2022-09-22T12:57:46.490Z,55
2022-09-22T12:58:43.639Z,55
2022-09-22T12:59:44.684Z,55
2022-09-22T13:00:43.704Z,55
2022-09-22T13:01:47.132Z,55
2022-09-22T13:02:46.690Z,55
2022-09-22T13:03:43.641Z,55
2022-09-22T13:04:43.646Z,55
2022-09-22T13:05:51.735Z,55
2022-09-22T13:06:43.684Z,55
2022-09-22T13:07:46.809Z,55
2022-09-22T13:08:46.662Z,55
2022-09-22T13:09:43.676Z,55
2022-09-22T13:10:43.666Z,55
2022-09-22T13:11:43.676Z,55
2022-09-22T13:12:43.722Z,55
2022-09-22T13:13:46.506Z,55
2022-09-22T13:14:43.670Z,55
2022-09-22T13:15:43.664Z,55
2022-09-22T13:16:43.985Z,55
2022-09-22T13:17:43.702Z,55
2022-09-22T13:18:46.710Z,55
2022-09-22T13:19:43.676Z,55
2022-09-22T13:20:43.522Z,55
2022-09-22T13:21:43.701Z,55
2022-09-22T13:22:43.709Z,55
2022-09-22T13:23:43.739Z,55
2022-09-22T13:24:46.811Z,55
2022-09-22T13:25:44.001Z,60
2022-09-22T13:26:43.702Z,60
2022-09-22T13:27:43.684Z,55
2022-09-22T13:28:43.707Z,60
2022-09-22T13:29:46.550Z,55
2022-09-22T13:30:44.210Z,55
2022-09-22T13:31:43.700Z,55
2022-09-22T13:32:43.574Z,55
2022-09-22T13:33:45.094Z,55
2022-09-22T13:34:43.732Z,55
2022-09-22T13:35:46.769Z,55
2022-09-22T13:36:43.757Z,55
2022-09-22T13:37:43.724Z,55
2022-09-22T13:38:43.707Z,55
2022-09-22T13:39:50.095Z,50
2022-09-22T13:40:46.974Z,50
2022-09-22T13:41:43.747Z,50
2022-09-22T13:42:43.716Z,50
2022-09-22T13:43:43.735Z,50
2022-09-22T13:44:43.725Z,50
2022-09-22T13:45:44.099Z,50
2022-09-22T13:46:43.778Z,50
2022-09-22T13:47:43.742Z,50
2022-09-22T13:48:43.768Z,50
2022-09-22T13:49:43.755Z,50
2022-09-22T13:50:43.807Z,50
2022-09-22T13:51:46.816Z,50
2022-09-22T13:52:43.742Z,50
2022-09-22T13:53:43.738Z,50
2022-09-22T13:54:43.735Z,50
2022-09-22T13:55:43.772Z,50
2022-09-22T13:56:43.760Z,50
2022-09-22T13:57:43.814Z,50
2022-09-22T13:58:44.506Z,50
2022-09-22T13:59:43.752Z,50
2022-09-22T14:01:21.303Z,45
2022-09-22T14:02:44.400Z,45
2022-09-22T14:03:43.772Z,45
2022-09-22T14:04:44.988Z,35
2022-09-22T14:05:56.236Z,35
2022-09-22T14:06:46.586Z,35
2022-09-22T14:08:22.744Z,35
2022-09-22T14:08:43.821Z,35
2022-09-22T14:09:43.788Z,35
2022-09-22T14:10:43.789Z,35
2022-09-22T14:11:43.813Z,35
2022-09-22T14:12:43.783Z,35
2022-09-22T14:13:43.777Z,35
2022-09-22T14:14:43.776Z,35
2022-09-22T14:15:44.025Z,35
2022-09-22T14:16:44.320Z,35
2022-09-22T14:17:43.991Z,35
2022-09-22T14:18:47.087Z,35
2022-09-22T14:19:43.781Z,35
2022-09-22T14:20:44.611Z,35
2022-09-22T14:21:43.812Z,30
2022-09-22T14:22:44.237Z,30
2022-09-22T14:23:46.867Z,30
2022-09-22T14:24:43.810Z,30
2022-09-22T14:25:43.876Z,30
2022-09-22T14:26:43.797Z,30
2022-09-22T14:27:43.858Z,30
2022-09-22T14:28:43.656Z,30
2022-09-22T14:29:46.935Z,30
2022-09-22T14:30:43.864Z,30
2022-09-22T14:31:43.962Z,30
2022-09-22T14:32:43.719Z,40
2022-09-22T14:33:43.880Z,40